This is the latest recevied weather packets stored in our database for station/object N2WH. If no packets are shown the sender has not sent any weather packets the latest 10 day(s).
| Time | Temp. | Humidity | Pressure | Rain* | Wind** | Luminosity | Snow |
|---|---|---|---|---|---|---|---|
| 1777494374 | 15° C | 66% | 1012.6 hPa | 0 mm | - | 174 W/m² | - |
| 1777494070 | 15° C | 65% | 1012.5 hPa | 0 mm | - | 169 W/m² | - |
| 1777493768 | 15° C | 65% | 1012.4 hPa | 0 mm | - | 161 W/m² | - |
| 1777493466 | 15.56° C | 64% | 1012.6 hPa | 0 mm | - | 166 W/m² | - |
| 1777493161 | 15.56° C | 64% | 1012.6 hPa | 0 mm | - | 145 W/m² | - |
| 1777492859 | 16.11° C | 62% | 1012.8 hPa | 0 mm | - | 133 W/m² | - |
| 1777492555 | 16.11° C | 62% | 1012.5 hPa | 0 mm | - | 243 W/m² | - |
| 1777492251 | 15.56° C | 62% | 1012.6 hPa | 0 mm | - | 263 W/m² | - |
| 1777491949 | 16.11° C | 61% | 1013 hPa | 0 mm | - | 212 W/m² | - |
| 1777491644 | 16.11° C | 61% | 1013.2 hPa | 0 mm | - | 228 W/m² | - |
| 1777491342 | 16.11° C | 61% | 1013.1 hPa | 0 mm | - | 188 W/m² | - |
| 1777491039 | 16.11° C | 61% | 1013.1 hPa | 0 mm | - | 191 W/m² | - |
| 1777490734 | 16.11° C | 61% | 1013.1 hPa | 0 mm | - | 237 W/m² | - |
| 1777490432 | 16.67° C | 60% | 1013.1 hPa | 0 mm | - | 240 W/m² | - |
| 1777490128 | 16.67° C | 61% | 1013.2 hPa | 0 mm | - | 218 W/m² | - |
| 1777489826 | 16.67° C | 59% | 1013.7 hPa | 0 mm | - | 205 W/m² | - |
| 1777489523 | 17.22° C | 58% | 1013.5 hPa | 0 mm | - | 262 W/m² | - |
| 1777489220 | 17.22° C | 58% | 1013.5 hPa | 0 mm | - | 276 W/m² | - |
| 1777488916 | 17.22° C | 58% | 1013.5 hPa | 0 mm | - | 251 W/m² | - |
| 1777488613 | 16.67° C | 58% | 1013.7 hPa | 0 mm | - | 172 W/m² | - |
| 1777488311 | 17.22° C | 57% | 1013.7 hPa | 0 mm | - | 179 W/m² | - |
| 1777488009 | 17.22° C | 56% | 1013.9 hPa | 0 mm | - | 210 W/m² | - |
| 1777487707 | 17.78° C | 55% | 1013.7 hPa | 0 mm | - | 228 W/m² | - |
| 1777487404 | 17.78° C | 54% | 1013.9 hPa | 0 mm | - | 262 W/m² | - |
| 1777487101 | 17.78° C | 54% | 1013.7 hPa | 0 mm | - | 319 W/m² | - |
* Rain latest hour (hover to see other rain measurements)
** Current wind speed in m/s (hover to see current wind gust speed)